sensor_id;sensor_type;location;lat;lon;timestamp;temperature;humidity
6758;DHT22;3416;53.074;8.822;2023-04-25T00:01:22;8.80;99.90
6758;DHT22;3416;53.074;8.822;2023-04-25T00:03:49;8.90;99.90
6758;DHT22;3416;53.074;8.822;2023-04-25T00:06:16;8.90;99.90
6758;DHT22;3416;53.074;8.822;2023-04-25T00:08:44;9.00;99.90
6758;DHT22;3416;53.074;8.822;2023-04-25T00:11:11;9.00;99.90
6758;DHT22;3416;53.074;8.822;2023-04-25T00:13:38;8.90;99.90
6758;DHT22;3416;53.074;8.822;2023-04-25T00:16:08;8.90;99.90
6758;DHT22;3416;53.074;8.822;2023-04-25T00:18:36;8.90;99.90
6758;DHT22;3416;53.074;8.822;2023-04-25T00:21:03;8.90;99.90
6758;DHT22;3416;53.074;8.822;2023-04-25T00:23:33;8.90;99.90
6758;DHT22;3416;53.074;8.822;2023-04-25T00:26:02;8.90;99.90
6758;DHT22;3416;53.074;8.822;2023-04-25T00:28:29;8.90;99.90
6758;DHT22;3416;53.074;8.822;2023-04-25T00:30:56;8.90;99.90
6758;DHT22;3416;53.074;8.822;2023-04-25T00:33:24;8.80;99.90
6758;DHT22;3416;53.074;8.822;2023-04-25T00:35:51;8.90;99.90
6758;DHT22;3416;53.074;8.822;2023-04-25T00:38:18;8.90;99.90
6758;DHT22;3416;53.074;8.822;2023-04-25T00:40:44;8.80;99.90
6758;DHT22;3416;53.074;8.822;2023-04-25T00:43:11;8.80;99.90
6758;DHT22;3416;53.074;8.822;2023-04-25T00:45:39;8.80;99.90
6758;DHT22;3416;53.074;8.822;2023-04-25T00:48:06;8.70;99.90
6758;DHT22;3416;53.074;8.822;2023-04-25T00:50:35;8.80;99.90
6758;DHT22;3416;53.074;8.822;2023-04-25T00:53:03;8.70;99.90
6758;DHT22;3416;53.074;8.822;2023-04-25T00:55:30;8.70;99.90
6758;DHT22;3416;53.074;8.822;2023-04-25T00:57:59;8.70;99.90
6758;DHT22;3416;53.074;8.822;2023-04-25T01:00:26;8.70;99.90
6758;DHT22;3416;53.074;8.822;2023-04-25T01:02:53;8.70;99.90
6758;DHT22;3416;53.074;8.822;2023-04-25T01:05:20;8.70;99.90
6758;DHT22;3416;53.074;8.822;2023-04-25T01:07:48;8.60;99.90
6758;DHT22;3416;53.074;8.822;2023-04-25T01:10:15;8.50;99.90
6758;DHT22;3416;53.074;8.822;2023-04-25T01:12:42;8.50;99.90
6758;DHT22;3416;53.074;8.822;2023-04-25T01:15:10;8.50;99.90
6758;DHT22;3416;53.074;8.822;2023-04-25T01:17:37;8.40;99.90
6758;DHT22;3416;53.074;8.822;2023-04-25T01:20:06;8.40;99.90
6758;DHT22;3416;53.074;8.822;2023-04-25T01:22:36;8.40;99.90
6758;DHT22;3416;53.074;8.822;2023-04-25T01:25:04;8.40;99.90
6758;DHT22;3416;53.074;8.822;2023-04-25T01:27:31;8.40;99.90
6758;DHT22;3416;53.074;8.822;2023-04-25T01:29:59;8.40;99.90
6758;DHT22;3416;53.074;8.822;2023-04-25T01:32:26;8.40;99.90
6758;DHT22;3416;53.074;8.822;2023-04-25T01:34:53;8.30;99.90
6758;DHT22;3416;53.074;8.822;2023-04-25T01:37:20;8.30;99.90
6758;DHT22;3416;53.074;8.822;2023-04-25T01:39:49;8.30;99.90
6758;DHT22;3416;53.074;8.822;2023-04-25T01:42:16;8.40;99.90
6758;DHT22;3416;53.074;8.822;2023-04-25T01:44:43;8.30;99.90
6758;DHT22;3416;53.074;8.822;2023-04-25T01:47:10;8.30;99.90
6758;DHT22;3416;53.074;8.822;2023-04-25T01:49:37;8.30;99.90
6758;DHT22;3416;53.074;8.822;2023-04-25T01:52:04;8.40;99.90
6758;DHT22;3416;53.074;8.822;2023-04-25T01:54:31;8.40;99.90
6758;DHT22;3416;53.074;8.822;2023-04-25T01:56:59;8.40;99.90
6758;DHT22;3416;53.074;8.822;2023-04-25T01:59:27;8.40;99.90
6758;DHT22;3416;53.074;8.822;2023-04-25T02:01:54;8.40;99.90
6758;DHT22;3416;53.074;8.822;2023-04-25T02:04:21;8.40;99.90
6758;DHT22;3416;53.074;8.822;2023-04-25T02:06:47;8.30;99.90
6758;DHT22;3416;53.074;8.822;2023-04-25T02:09:14;8.30;99.90
6758;DHT22;3416;53.074;8.822;2023-04-25T02:11:41;8.30;99.90
6758;DHT22;3416;53.074;8.822;2023-04-25T02:14:09;8.40;99.90
6758;DHT22;3416;53.074;8.822;2023-04-25T02:16:36;8.40;99.90
6758;DHT22;3416;53.074;8.822;2023-04-25T02:19:04;8.30;99.90
6758;DHT22;3416;53.074;8.822;2023-04-25T02:21:31;8.30;99.90
6758;DHT22;3416;53.074;8.822;2023-04-25T02:23:58;8.30;99.90
6758;DHT22;3416;53.074;8.822;2023-04-25T02:26:25;8.30;99.90
6758;DHT22;3416;53.074;8.822;2023-04-25T02:28:52;8.30;99.90
6758;DHT22;3416;53.074;8.822;2023-04-25T02:31:20;8.30;99.90
6758;DHT22;3416;53.074;8.822;2023-04-25T02:33:47;8.10;99.90
6758;DHT22;3416;53.074;8.822;2023-04-25T02:36:14;8.00;99.90
6758;DHT22;3416;53.074;8.822;2023-04-25T02:38:41;8.00;99.90
6758;DHT22;3416;53.074;8.822;2023-04-25T02:41:08;7.90;99.90
6758;DHT22;3416;53.074;8.822;2023-04-25T02:43:35;7.90;99.90
6758;DHT22;3416;53.074;8.822;2023-04-25T02:46:03;7.80;99.90
6758;DHT22;3416;53.074;8.822;2023-04-25T02:48:31;7.80;99.90
6758;DHT22;3416;53.074;8.822;2023-04-25T02:50:58;7.80;99.90
6758;DHT22;3416;53.074;8.822;2023-04-25T02:53:25;7.70;99.90
6758;DHT22;3416;53.074;8.822;2023-04-25T02:55:51;7.70;99.90
6758;DHT22;3416;53.074;8.822;2023-04-25T02:58:18;7.60;99.90
6758;DHT22;3416;53.074;8.822;2023-04-25T03:00:45;7.70;99.90
6758;DHT22;3416;53.074;8.822;2023-04-25T03:03:12;7.60;99.90
6758;DHT22;3416;53.074;8.822;2023-04-25T03:05:41;7.60;99.90
6758;DHT22;3416;53.074;8.822;2023-04-25T03:08:08;7.60;99.90
6758;DHT22;3416;53.074;8.822;2023-04-25T03:10:35;7.60;99.90
6758;DHT22;3416;53.074;8.822;2023-04-25T03:13:02;7.60;99.90
6758;DHT22;3416;53.074;8.822;2023-04-25T03:15:29;7.70;99.90
6758;DHT22;3416;53.074;8.822;2023-04-25T03:17:56;7.70;99.90
6758;DHT22;3416;53.074;8.822;2023-04-25T03:20:23;7.70;99.90
6758;DHT22;3416;53.074;8.822;2023-04-25T03:22:52;7.80;99.90
6758;DHT22;3416;53.074;8.822;2023-04-25T03:25:19;7.70;99.90
6758;DHT22;3416;53.074;8.822;2023-04-25T03:27:46;7.70;99.90
6758;DHT22;3416;53.074;8.822;2023-04-25T03:30:13;7.70;99.90
6758;DHT22;3416;53.074;8.822;2023-04-25T03:32:40;7.70;99.90
6758;DHT22;3416;53.074;8.822;2023-04-25T03:35:07;7.70;99.90
6758;DHT22;3416;53.074;8.822;2023-04-25T03:37:34;7.70;99.90
6758;DHT22;3416;53.074;8.822;2023-04-25T03:40:03;7.70;99.90
6758;DHT22;3416;53.074;8.822;2023-04-25T03:42:31;7.60;99.90
6758;DHT22;3416;53.074;8.822;2023-04-25T03:44:58;7.50;99.90
6758;DHT22;3416;53.074;8.822;2023-04-25T03:47:24;7.70;99.90
6758;DHT22;3416;53.074;8.822;2023-04-25T03:49:52;7.70;99.90
6758;DHT22;3416;53.074;8.822;2023-04-25T03:52:19;7.70;99.90
6758;DHT22;3416;53.074;8.822;2023-04-25T03:54:46;7.60;99.90
6758;DHT22;3416;53.074;8.822;2023-04-25T03:57:14;7.60;99.90
6758;DHT22;3416;53.074;8.822;2023-04-25T03:59:41;7.50;99.90
6758;DHT22;3416;53.074;8.822;2023-04-25T04:02:08;7.60;99.90
6758;DHT22;3416;53.074;8.822;2023-04-25T04:04:36;7.50;99.90
6758;DHT22;3416;53.074;8.822;2023-04-25T04:07:03;7.50;99.90
6758;DHT22;3416;53.074;8.822;2023-04-25T04:09:30;7.40;99.90
6758;DHT22;3416;53.074;8.822;2023-04-25T04:11:57;7.40;99.90
6758;DHT22;3416;53.074;8.822;2023-04-25T04:14:26;7.30;99.90
6758;DHT22;3416;53.074;8.822;2023-04-25T04:16:53;7.20;99.90
6758;DHT22;3416;53.074;8.822;2023-04-25T04:19:20;7.20;99.90
6758;DHT22;3416;53.074;8.822;2023-04-25T04:21:47;7.20;99.90
6758;DHT22;3416;53.074;8.822;2023-04-25T04:24:13;7.10;99.90
6758;DHT22;3416;53.074;8.822;2023-04-25T04:26:42;7.10;99.90
6758;DHT22;3416;53.074;8.822;2023-04-25T04:29:10;7.00;99.90
6758;DHT22;3416;53.074;8.822;2023-04-25T04:31:39;7.10;99.90
6758;DHT22;3416;53.074;8.822;2023-04-25T04:34:06;7.10;99.90
6758;DHT22;3416;53.074;8.822;2023-04-25T04:36:33;7.10;99.90
6758;DHT22;3416;53.074;8.822;2023-04-25T04:39:00;7.20;99.90
6758;DHT22;3416;53.074;8.822;2023-04-25T04:41:28;7.30;99.90
6758;DHT22;3416;53.074;8.822;2023-04-25T04:43:55;7.30;99.90
6758;DHT22;3416;53.074;8.822;2023-04-25T04:46:22;7.40;99.90
6758;DHT22;3416;53.074;8.822;2023-04-25T04:48:51;7.50;99.90
6758;DHT22;3416;53.074;8.822;2023-04-25T04:51:19;7.50;99.90
6758;DHT22;3416;53.074;8.822;2023-04-25T04:53:46;7.40;99.90
6758;DHT22;3416;53.074;8.822;2023-04-25T04:56:14;7.50;99.90
6758;DHT22;3416;53.074;8.822;2023-04-25T04:58:40;7.50;99.90
6758;DHT22;3416;53.074;8.822;2023-04-25T05:01:07;7.60;99.90
6758;DHT22;3416;53.074;8.822;2023-04-25T05:03:34;7.50;99.90
6758;DHT22;3416;53.074;8.822;2023-04-25T05:06:03;7.50;99.90
6758;DHT22;3416;53.074;8.822;2023-04-25T05:08:30;7.50;99.90
6758;DHT22;3416;53.074;8.822;2023-04-25T05:10:58;7.60;99.90
6758;DHT22;3416;53.074;8.822;2023-04-25T05:13:25;7.70;99.90
6758;DHT22;3416;53.074;8.822;2023-04-25T05:15:52;7.70;99.90
6758;DHT22;3416;53.074;8.822;2023-04-25T05:18:19;7.80;99.90
6758;DHT22;3416;53.074;8.822;2023-04-25T05:20:46;7.80;99.90
6758;DHT22;3416;53.074;8.822;2023-04-25T05:23:15;7.80;99.90
6758;DHT22;3416;53.074;8.822;2023-04-25T05:25:42;7.90;99.90
6758;DHT22;3416;53.074;8.822;2023-04-25T05:28:09;8.00;99.90
6758;DHT22;3416;53.074;8.822;2023-04-25T05:30:36;8.00;99.90
6758;DHT22;3416;53.074;8.822;2023-04-25T05:33:04;8.10;99.90
6758;DHT22;3416;53.074;8.822;2023-04-25T05:35:31;8.00;99.90
6758;DHT22;3416;53.074;8.822;2023-04-25T05:37:59;8.10;99.90
6758;DHT22;3416;53.074;8.822;2023-04-25T05:40:27;8.10;99.90
6758;DHT22;3416;53.074;8.822;2023-04-25T05:42:54;8.20;99.90
6758;DHT22;3416;53.074;8.822;2023-04-25T05:45:21;8.30;99.90
6758;DHT22;3416;53.074;8.822;2023-04-25T05:47:49;8.30;99.90
6758;DHT22;3416;53.074;8.822;2023-04-25T05:50:16;8.30;99.90
6758;DHT22;3416;53.074;8.822;2023-04-25T05:52:43;8.30;99.90
6758;DHT22;3416;53.074;8.822;2023-04-25T05:55:10;8.10;99.90
6758;DHT22;3416;53.074;8.822;2023-04-25T05:57:38;8.20;99.90
6758;DHT22;3416;53.074;8.822;2023-04-25T06:00:08;8.70;99.90
6758;DHT22;3416;53.074;8.822;2023-04-25T06:02:35;9.40;99.90
6758;DHT22;3416;53.074;8.822;2023-04-25T06:05:02;10.60;99.90
6758;DHT22;3416;53.074;8.822;2023-04-25T06:07:30;12.00;99.90
6758;DHT22;3416;53.074;8.822;2023-04-25T06:09:58;13.30;99.90
6758;DHT22;3416;53.074;8.822;2023-04-25T06:12:27;14.20;97.90
6758;DHT22;3416;53.074;8.822;2023-04-25T06:14:55;15.00;94.30
6758;DHT22;3416;53.074;8.822;2023-04-25T06:17:22;15.70;92.80
6758;DHT22;3416;53.074;8.822;2023-04-25T06:19:49;15.80;91.10
6758;DHT22;3416;53.074;8.822;2023-04-25T06:22:19;16.00;90.60
6758;DHT22;3416;53.074;8.822;2023-04-25T06:24:46;16.40;90.10
6758;DHT22;3416;53.074;8.822;2023-04-25T06:27:13;16.90;88.70
6758;DHT22;3416;53.074;8.822;2023-04-25T06:29:40;16.50;87.40
6758;DHT22;3416;53.074;8.822;2023-04-25T06:32:08;16.50;86.70
6758;DHT22;3416;53.074;8.822;2023-04-25T06:34:35;16.70;86.00
6758;DHT22;3416;53.074;8.822;2023-04-25T06:37:02;17.10;85.80
6758;DHT22;3416;53.074;8.822;2023-04-25T06:39:29;17.50;83.80
6758;DHT22;3416;53.074;8.822;2023-04-25T06:41:56;17.90;83.10
6758;DHT22;3416;53.074;8.822;2023-04-25T06:44:23;18.70;81.40
6758;DHT22;3416;53.074;8.822;2023-04-25T06:46:51;19.20;79.40
6758;DHT22;3416;53.074;8.822;2023-04-25T06:49:20;18.30;78.20
6758;DHT22;3416;53.074;8.822;2023-04-25T06:51:46;17.30;79.70
6758;DHT22;3416;53.074;8.822;2023-04-25T06:54:13;16.20;81.60
6758;DHT22;3416;53.074;8.822;2023-04-25T06:56:40;15.30;83.60
6758;DHT22;3416;53.074;8.822;2023-04-25T06:59:07;14.40;86.20
6758;DHT22;3416;53.074;8.822;2023-04-25T07:01:34;13.60;88.60
6758;DHT22;3416;53.074;8.822;2023-04-25T07:04:01;13.10;89.70
6758;DHT22;3416;53.074;8.822;2023-04-25T07:06:30;12.30;90.20
6758;DHT22;3416;53.074;8.822;2023-04-25T07:08:57;11.80;91.50
6758;DHT22;3416;53.074;8.822;2023-04-25T07:11:24;11.40;93.10
6758;DHT22;3416;53.074;8.822;2023-04-25T07:13:50;10.90;94.40
6758;DHT22;3416;53.074;8.822;2023-04-25T07:16:17;10.60;95.60
6758;DHT22;3416;53.074;8.822;2023-04-25T07:18:44;10.40;97.30
6758;DHT22;3416;53.074;8.822;2023-04-25T07:21:12;10.30;97.70
6758;DHT22;3416;53.074;8.822;2023-04-25T07:23:40;10.00;97.60
6758;DHT22;3416;53.074;8.822;2023-04-25T07:26:07;10.00;97.50
6758;DHT22;3416;53.074;8.822;2023-04-25T07:28:34;10.30;98.60
6758;DHT22;3416;53.074;8.822;2023-04-25T07:31:01;10.50;96.80
6758;DHT22;3416;53.074;8.822;2023-04-25T07:33:29;10.70;95.80
6758;DHT22;3416;53.074;8.822;2023-04-25T07:35:56;11.60;95.40
6758;DHT22;3416;53.074;8.822;2023-04-25T07:38:23;13.10;93.40
6758;DHT22;3416;53.074;8.822;2023-04-25T07:40:52;14.90;91.00
6758;DHT22;3416;53.074;8.822;2023-04-25T07:43:19;16.80;85.50
6758;DHT22;3416;53.074;8.822;2023-04-25T07:45:46;16.90;79.60
6758;DHT22;3416;53.074;8.822;2023-04-25T07:48:16;17.00;80.40
6758;DHT22;3416;53.074;8.822;2023-04-25T07:50:44;17.50;79.30
6758;DHT22;3416;53.074;8.822;2023-04-25T07:53:11;18.10;76.90
6758;DHT22;3416;53.074;8.822;2023-04-25T07:55:38;18.00;75.30
6758;DHT22;3416;53.074;8.822;2023-04-25T07:58:07;18.40;75.10
6758;DHT22;3416;53.074;8.822;2023-04-25T08:00:34;19.50;74.80
6758;DHT22;3416;53.074;8.822;2023-04-25T08:03:01;19.70;71.70
6758;DHT22;3416;53.074;8.822;2023-04-25T08:05:28;19.00;69.20
6758;DHT22;3416;53.074;8.822;2023-04-25T08:07:55;17.70;70.90
6758;DHT22;3416;53.074;8.822;2023-04-25T08:10:22;16.20;74.60
6758;DHT22;3416;53.074;8.822;2023-04-25T08:12:49;15.20;77.10
6758;DHT22;3416;53.074;8.822;2023-04-25T08:15:18;14.20;79.00
6758;DHT22;3416;53.074;8.822;2023-04-25T08:17:44;13.50;81.10
6758;DHT22;3416;53.074;8.822;2023-04-25T08:20:12;12.80;83.40
6758;DHT22;3416;53.074;8.822;2023-04-25T08:22:39;12.40;86.10
6758;DHT22;3416;53.074;8.822;2023-04-25T08:25:06;11.80;87.90
6758;DHT22;3416;53.074;8.822;2023-04-25T08:27:34;11.50;90.70
6758;DHT22;3416;53.074;8.822;2023-04-25T08:30:00;11.10;92.60
6758;DHT22;3416;53.074;8.822;2023-04-25T08:32:30;10.90;96.80
6758;DHT22;3416;53.074;8.822;2023-04-25T08:34:58;10.70;98.70
6758;DHT22;3416;53.074;8.822;2023-04-25T08:37:25;10.40;97.60
6758;DHT22;3416;53.074;8.822;2023-04-25T08:39:52;10.20;97.50
6758;DHT22;3416;53.074;8.822;2023-04-25T08:42:19;10.20;97.50
6758;DHT22;3416;53.074;8.822;2023-04-25T08:44:48;10.30;96.90
6758;DHT22;3416;53.074;8.822;2023-04-25T08:47:15;10.30;95.30
6758;DHT22;3416;53.074;8.822;2023-04-25T08:49:45;10.30;95.80
6758;DHT22;3416;53.074;8.822;2023-04-25T08:52:13;10.40;94.80
6758;DHT22;3416;53.074;8.822;2023-04-25T08:54:42;10.60;94.00
6758;DHT22;3416;53.074;8.822;2023-04-25T08:57:10;10.50;93.80
6758;DHT22;3416;53.074;8.822;2023-04-25T08:59:53;10.60;93.70
6758;DHT22;3416;53.074;8.822;2023-04-25T09:02:33;10.90;93.40
6758;DHT22;3416;53.074;8.822;2023-04-25T09:05:02;11.30;92.10
6758;DHT22;3416;53.074;8.822;2023-04-25T09:07:35;12.00;94.00
6758;DHT22;3416;53.074;8.822;2023-04-25T09:10:02;13.10;92.80
6758;DHT22;3416;53.074;8.822;2023-04-25T09:12:29;14.40;88.40
6758;DHT22;3416;53.074;8.822;2023-04-25T09:15:05;15.50;86.00
6758;DHT22;3416;53.074;8.822;2023-04-25T09:17:32;15.90;80.70
6758;DHT22;3416;53.074;8.822;2023-04-25T09:20:07;16.20;79.50
6758;DHT22;3416;53.074;8.822;2023-04-25T09:22:36;16.90;79.70
6758;DHT22;3416;53.074;8.822;2023-04-25T09:25:03;16.40;80.30
6758;DHT22;3416;53.074;8.822;2023-04-25T09:27:32;15.50;78.20
6758;DHT22;3416;53.074;8.822;2023-04-25T09:30:00;14.40;81.10
6758;DHT22;3416;53.074;8.822;2023-04-25T09:32:27;13.90;82.60
6758;DHT22;3416;53.074;8.822;2023-04-25T09:34:55;13.50;84.70
6758;DHT22;3416;53.074;8.822;2023-04-25T09:37:25;13.10;85.70
6758;DHT22;3416;53.074;8.822;2023-04-25T09:39:55;12.70;86.40
6758;DHT22;3416;53.074;8.822;2023-04-25T09:42:24;12.40;90.00
6758;DHT22;3416;53.074;8.822;2023-04-25T09:44:54;12.50;90.80
6758;DHT22;3416;53.074;8.822;2023-04-25T09:47:23;12.40;91.30
6758;DHT22;3416;53.074;8.822;2023-04-25T09:49:51;12.00;92.50
6758;DHT22;3416;53.074;8.822;2023-04-25T09:52:19;12.40;93.20
6758;DHT22;3416;53.074;8.822;2023-04-25T09:54:49;12.60;92.30
6758;DHT22;3416;53.074;8.822;2023-04-25T09:57:18;12.80;93.10
6758;DHT22;3416;53.074;8.822;2023-04-25T09:59:46;13.10;91.70
6758;DHT22;3416;53.074;8.822;2023-04-25T10:02:15;13.50;91.10
6758;DHT22;3416;53.074;8.822;2023-04-25T10:04:45;13.80;91.20
6758;DHT22;3416;53.074;8.822;2023-04-25T10:07:14;14.70;90.20
6758;DHT22;3416;53.074;8.822;2023-04-25T10:09:42;15.60;84.50
6758;DHT22;3416;53.074;8.822;2023-04-25T10:12:12;16.10;81.50
6758;DHT22;3416;53.074;8.822;2023-04-25T10:14:40;15.90;77.50
6758;DHT22;3416;53.074;8.822;2023-04-25T10:17:10;15.80;78.30
6758;DHT22;3416;53.074;8.822;2023-04-25T10:19:37;16.10;76.00
6758;DHT22;3416;53.074;8.822;2023-04-25T10:22:08;16.00;74.60
6758;DHT22;3416;53.074;8.822;2023-04-25T10:24:39;16.40;75.20
6758;DHT22;3416;53.074;8.822;2023-04-25T10:27:06;15.80;75.90
6758;DHT22;3416;53.074;8.822;2023-04-25T10:29:35;15.30;76.90
6758;DHT22;3416;53.074;8.822;2023-04-25T10:32:02;15.20;78.80
6758;DHT22;3416;53.074;8.822;2023-04-25T10:34:43;15.00;79.20
6758;DHT22;3416;53.074;8.822;2023-04-25T10:37:12;14.60;80.50
6758;DHT22;3416;53.074;8.822;2023-04-25T10:39:41;14.30;83.10
6758;DHT22;3416;53.074;8.822;2023-04-25T10:42:08;13.90;82.30
6758;DHT22;3416;53.074;8.822;2023-04-25T10:44:37;13.50;83.40
6758;DHT22;3416;53.074;8.822;2023-04-25T10:47:06;13.20;85.40
6758;DHT22;3416;53.074;8.822;2023-04-25T10:49:34;13.20;86.40
6758;DHT22;3416;53.074;8.822;2023-04-25T10:52:17;13.10;87.20
6758;DHT22;3416;53.074;8.822;2023-04-25T10:54:49;13.40;87.00
6758;DHT22;3416;53.074;8.822;2023-04-25T10:57:31;13.40;87.30
6758;DHT22;3416;53.074;8.822;2023-04-25T11:00:08;13.70;87.60
6758;DHT22;3416;53.074;8.822;2023-04-25T11:02:44;14.10;88.00
6758;DHT22;3416;53.074;8.822;2023-04-25T11:05:23;14.20;86.90
6758;DHT22;3416;53.074;8.822;2023-04-25T11:07:55;14.10;87.20
6758;DHT22;3416;53.074;8.822;2023-04-25T11:10:25;14.10;86.60
6758;DHT22;3416;53.074;8.822;2023-04-25T11:12:52;14.30;86.70
6758;DHT22;3416;53.074;8.822;2023-04-25T11:15:20;14.50;85.70
6758;DHT22;3416;53.074;8.822;2023-04-25T11:17:47;14.50;85.50
6758;DHT22;3416;53.074;8.822;2023-04-25T11:20:14;14.80;85.60
6758;DHT22;3416;53.074;8.822;2023-04-25T11:22:41;15.10;85.70
6758;DHT22;3416;53.074;8.822;2023-04-25T11:25:12;15.20;83.50
6758;DHT22;3416;53.074;8.822;2023-04-25T11:27:49;15.00;83.50
6758;DHT22;3416;53.074;8.822;2023-04-25T11:30:17;14.60;86.50
6758;DHT22;3416;53.074;8.822;2023-04-25T11:32:47;13.70;90.50
6758;DHT22;3416;53.074;8.822;2023-04-25T11:35:14;12.90;91.60
6758;DHT22;3416;53.074;8.822;2023-04-25T11:37:42;11.70;94.40
6758;DHT22;3416;53.074;8.822;2023-04-25T11:40:10;10.90;99.00
6758;DHT22;3416;53.074;8.822;2023-04-25T11:42:38;10.30;99.90
6758;DHT22;3416;53.074;8.822;2023-04-25T11:45:06;9.60;99.90
6758;DHT22;3416;53.074;8.822;2023-04-25T11:47:34;9.30;99.90
6758;DHT22;3416;53.074;8.822;2023-04-25T11:50:04;9.20;99.90
6758;DHT22;3416;53.074;8.822;2023-04-25T11:52:38;9.40;99.90
6758;DHT22;3416;53.074;8.822;2023-04-25T11:55:07;9.70;99.90
6758;DHT22;3416;53.074;8.822;2023-04-25T11:57:34;10.00;99.90
6758;DHT22;3416;53.074;8.822;2023-04-25T12:00:09;10.30;99.90
6758;DHT22;3416;53.074;8.822;2023-04-25T12:02:53;10.60;99.90
6758;DHT22;3416;53.074;8.822;2023-04-25T12:05:25;10.90;99.90
6758;DHT22;3416;53.074;8.822;2023-04-25T12:07:53;11.10;99.90
6758;DHT22;3416;53.074;8.822;2023-04-25T12:10:20;11.50;98.80
6758;DHT22;3416;53.074;8.822;2023-04-25T12:12:48;11.10;98.10
6758;DHT22;3416;53.074;8.822;2023-04-25T12:15:16;11.20;98.80
6758;DHT22;3416;53.074;8.822;2023-04-25T12:17:57;10.90;97.30
6758;DHT22;3416;53.074;8.822;2023-04-25T12:20:25;11.00;98.80
6758;DHT22;3416;53.074;8.822;2023-04-25T12:22:52;11.30;98.10
6758;DHT22;3416;53.074;8.822;2023-04-25T12:25:36;11.40;98.80
6758;DHT22;3416;53.074;8.822;2023-04-25T12:28:14;11.60;96.30
6758;DHT22;3416;53.074;8.822;2023-04-25T12:30:55;11.50;94.10
6758;DHT22;3416;53.074;8.822;2023-04-25T12:33:23;11.50;93.90
6758;DHT22;3416;53.074;8.822;2023-04-25T12:35:52;11.50;94.30
6758;DHT22;3416;53.074;8.822;2023-04-25T12:38:23;11.50;93.80
6758;DHT22;3416;53.074;8.822;2023-04-25T12:40:50;11.50;93.00
6758;DHT22;3416;53.074;8.822;2023-04-25T12:43:17;11.60;93.10
6758;DHT22;3416;53.074;8.822;2023-04-25T12:45:44;11.80;92.40
6758;DHT22;3416;53.074;8.822;2023-04-25T12:48:11;11.80;92.20
6758;DHT22;3416;53.074;8.822;2023-04-25T12:50:38;11.60;92.20
6758;DHT22;3416;53.074;8.822;2023-04-25T12:53:06;11.50;92.20
6758;DHT22;3416;53.074;8.822;2023-04-25T12:55:34;11.50;93.00
6758;DHT22;3416;53.074;8.822;2023-04-25T12:58:01;11.50;92.80
6758;DHT22;3416;53.074;8.822;2023-04-25T13:00:28;11.50;92.20
6758;DHT22;3416;53.074;8.822;2023-04-25T13:02:56;11.50;93.10
6758;DHT22;3416;53.074;8.822;2023-04-25T13:05:23;11.70;93.20
6758;DHT22;3416;53.074;8.822;2023-04-25T13:07:50;11.80;92.80
6758;DHT22;3416;53.074;8.822;2023-04-25T13:10:18;11.60;93.00
6758;DHT22;3416;53.074;8.822;2023-04-25T13:12:45;11.20;93.10
6758;DHT22;3416;53.074;8.822;2023-04-25T13:15:12;10.70;94.80
6758;DHT22;3416;53.074;8.822;2023-04-25T13:17:41;10.30;97.30
6758;DHT22;3416;53.074;8.822;2023-04-25T13:20:09;9.90;99.60
6758;DHT22;3416;53.074;8.822;2023-04-25T13:22:38;9.80;99.90
6758;DHT22;3416;53.074;8.822;2023-04-25T13:25:06;10.10;99.90
6758;DHT22;3416;53.074;8.822;2023-04-25T13:27:35;10.50;98.30
6758;DHT22;3416;53.074;8.822;2023-04-25T13:30:04;11.00;96.70
6758;DHT22;3416;53.074;8.822;2023-04-25T13:32:33;11.40;95.40
6758;DHT22;3416;53.074;8.822;2023-04-25T13:35:02;11.70;95.30
6758;DHT22;3416;53.074;8.822;2023-04-25T13:37:30;12.00;94.90
6758;DHT22;3416;53.074;8.822;2023-04-25T13:39:59;12.30;93.60
6758;DHT22;3416;53.074;8.822;2023-04-25T13:42:28;12.10;92.20
6758;DHT22;3416;53.074;8.822;2023-04-25T13:44:56;11.90;91.80
6758;DHT22;3416;53.074;8.822;2023-04-25T13:47:23;11.70;91.50
6758;DHT22;3416;53.074;8.822;2023-04-25T13:49:50;11.70;91.80
6758;DHT22;3416;53.074;8.822;2023-04-25T13:52:18;11.70;91.30
6758;DHT22;3416;53.074;8.822;2023-04-25T13:54:45;12.00;91.70
6758;DHT22;3416;53.074;8.822;2023-04-25T13:57:12;12.20;90.80
6758;DHT22;3416;53.074;8.822;2023-04-25T13:59:39;12.10;90.30
6758;DHT22;3416;53.074;8.822;2023-04-25T14:02:10;12.20;89.60
6758;DHT22;3416;53.074;8.822;2023-04-25T14:04:37;12.40;89.30
6758;DHT22;3416;53.074;8.822;2023-04-25T14:07:04;12.70;86.40
6758;DHT22;3416;53.074;8.822;2023-04-25T14:09:31;12.50;89.20
6758;DHT22;3416;53.074;8.822;2023-04-25T14:11:58;12.40;90.10
6758;DHT22;3416;53.074;8.822;2023-04-25T14:14:26;12.30;89.60
6758;DHT22;3416;53.074;8.822;2023-04-25T14:17:03;12.00;90.20
6758;DHT22;3416;53.074;8.822;2023-04-25T14:19:31;11.90;90.40
6758;DHT22;3416;53.074;8.822;2023-04-25T14:21:58;11.90;90.60
6758;DHT22;3416;53.074;8.822;2023-04-25T14:24:25;12.00;90.60
6758;DHT22;3416;53.074;8.822;2023-04-25T14:26:53;11.80;90.20
6758;DHT22;3416;53.074;8.822;2023-04-25T14:29:19;11.40;88.50
6758;DHT22;3416;53.074;8.822;2023-04-25T14:31:47;11.30;90.20
6758;DHT22;3416;53.074;8.822;2023-04-25T14:34:14;11.20;89.50
6758;DHT22;3416;53.074;8.822;2023-04-25T14:36:42;11.10;90.60
6758;DHT22;3416;53.074;8.822;2023-04-25T14:39:09;11.00;91.70
6758;DHT22;3416;53.074;8.822;2023-04-25T14:41:38;10.80;93.00
6758;DHT22;3416;53.074;8.822;2023-04-25T14:44:05;10.60;93.90
6758;DHT22;3416;53.074;8.822;2023-04-25T14:46:32;10.50;94.10
6758;DHT22;3416;53.074;8.822;2023-04-25T14:48:59;10.20;94.90
6758;DHT22;3416;53.074;8.822;2023-04-25T14:51:27;10.10;95.90
6758;DHT22;3416;53.074;8.822;2023-04-25T14:53:55;10.00;96.90
6758;DHT22;3416;53.074;8.822;2023-04-25T14:56:22;10.00;97.20
6758;DHT22;3416;53.074;8.822;2023-04-25T14:58:49;10.00;96.90
6758;DHT22;3416;53.074;8.822;2023-04-25T15:01:16;10.10;96.50
6758;DHT22;3416;53.074;8.822;2023-04-25T15:03:45;10.20;95.90
6758;DHT22;3416;53.074;8.822;2023-04-25T15:06:12;10.50;95.30
6758;DHT22;3416;53.074;8.822;2023-04-25T15:08:39;10.60;93.80
6758;DHT22;3416;53.074;8.822;2023-04-25T15:11:08;10.60;93.30
6758;DHT22;3416;53.074;8.822;2023-04-25T15:13:37;10.70;93.00
6758;DHT22;3416;53.074;8.822;2023-04-25T15:16:05;10.80;93.30
6758;DHT22;3416;53.074;8.822;2023-04-25T15:18:32;10.70;92.90
6758;DHT22;3416;53.074;8.822;2023-04-25T15:20:59;10.80;93.00
6758;DHT22;3416;53.074;8.822;2023-04-25T15:23:26;10.80;93.20
6758;DHT22;3416;53.074;8.822;2023-04-25T15:25:54;10.70;93.80
6758;DHT22;3416;53.074;8.822;2023-04-25T15:28:22;10.70;94.20
6758;DHT22;3416;53.074;8.822;2023-04-25T15:30:49;10.60;95.70
6758;DHT22;3416;53.074;8.822;2023-04-25T15:33:16;10.50;96.60
6758;DHT22;3416;53.074;8.822;2023-04-25T15:35:43;10.60;97.40
6758;DHT22;3416;53.074;8.822;2023-04-25T15:38:11;10.80;96.60
6758;DHT22;3416;53.074;8.822;2023-04-25T15:40:38;10.90;95.80
6758;DHT22;3416;53.074;8.822;2023-04-25T15:43:05;10.90;95.30
6758;DHT22;3416;53.074;8.822;2023-04-25T15:45:33;10.90;94.80
6758;DHT22;3416;53.074;8.822;2023-04-25T15:48:02;10.90;94.70
6758;DHT22;3416;53.074;8.822;2023-04-25T15:50:30;10.70;94.20
6758;DHT22;3416;53.074;8.822;2023-04-25T15:52:57;10.80;94.30
6758;DHT22;3416;53.074;8.822;2023-04-25T15:55:25;10.80;94.30
6758;DHT22;3416;53.074;8.822;2023-04-25T15:57:52;10.90;94.20
6758;DHT22;3416;53.074;8.822;2023-04-25T16:00:19;11.10;93.90
6758;DHT22;3416;53.074;8.822;2023-04-25T16:02:48;11.20;93.20
6758;DHT22;3416;53.074;8.822;2023-04-25T16:05:16;10.90;93.20
6758;DHT22;3416;53.074;8.822;2023-04-25T16:07:44;10.90;93.60
6758;DHT22;3416;53.074;8.822;2023-04-25T16:10:12;11.00;94.00
6758;DHT22;3416;53.074;8.822;2023-04-25T16:12:42;11.00;93.40